Time;durP1;ratioP1;P1;durP2;ratioP2;P2;SDS_P1;SDS_P2;PMS_P1;PMS_P2;Temp;Humidity;BMP_temperature;BMP_pressure;BME280_temperature;BME280_humidity;BME280_pressure;Samples;Min_cycle;Max_cycle;Signal;HPM_P1;HPM_P2
2022/04/20 00:00:52;;;;;;;11.63;10.93;;;;;;;1.30;83.99;92456.13;4992313;28;20204;-77
2022/04/20 00:03:17;;;;;;;12.73;11.87;;;;;;;1.26;84.37;92447.28;4991793;28;20264;-77
2022/04/20 00:05:43;;;;;;;12.67;11.70;;;;;;;1.37;84.09;92431.06;4991056;28;20195;-77
2022/04/20 00:08:08;;;;;;;11.53;10.53;;;;;;;1.28;84.58;92447.84;4991476;28;20240;-77
2022/04/20 00:10:34;;;;;;;11.87;11.23;;;;;;;1.34;84.71;92444.38;4990993;28;20254;-77
2022/04/20 00:12:59;;;;;;;11.93;11.17;;;;;;;1.26;83.93;92426.72;4991186;28;20212;-76
2022/04/20 00:15:25;;;;;;;10.30;9.80;;;;;;;1.31;85.23;92444.81;4991857;28;20188;-75
2022/04/20 00:17:51;;;;;;;11.10;10.30;;;;;;;1.40;85.11;92435.75;4991366;28;20193;-74
2022/04/20 00:20:16;;;;;;;13.27;12.10;;;;;;;1.25;85.16;92437.22;4991604;28;20180;-75
2022/04/20 00:22:42;;;;;;;10.80;10.10;;;;;;;1.31;85.64;92446.59;4991250;28;20231;-75
2022/04/20 00:25:08;;;;;;;12.93;12.23;;;;;;;1.14;86.63;92433.69;4991282;28;20294;-75
2022/04/20 00:27:37;;;;;;;12.93;12.17;;;;;;;1.13;86.88;92439.84;4992141;28;20200;-75
2022/04/20 00:30:08;;;;;;;11.13;10.23;;;;;;;1.13;86.13;92439.84;4990800;28;20220;-76
2022/04/20 00:32:34;;;;;;;11.13;10.47;;;;;;;1.03;86.36;92423.41;4990802;28;20239;-75
2022/04/20 00:35:00;;;;;;;10.73;10.17;;;;;;;1.16;85.11;92441.94;4990674;28;20224;-75
2022/04/20 00:37:25;;;;;;;10.90;10.27;;;;;;;1.13;85.04;92444.19;4991475;28;20242;-75
2022/04/20 00:39:51;;;;;;;10.67;10.07;;;;;;;1.04;84.96;92433.44;4990644;28;20240;-75
2022/04/20 00:42:19;;;;;;;10.60;10.00;;;;;;;1.05;84.85;92435.03;4991286;28;20192;-75
2022/04/20 00:44:44;;;;;;;12.23;11.17;;;;;;;1.07;85.18;92430.47;4990954;28;20240;-75
2022/04/20 00:47:10;;;;;;;12.03;11.17;;;;;;;1.09;85.11;92425.84;4990797;28;20199;-75
2022/04/20 00:49:37;;;;;;;12.40;11.57;;;;;;;0.99;85.47;92425.66;4991641;28;20241;-75
2022/04/20 00:52:04;;;;;;;10.97;10.17;;;;;;;1.02;85.50;92412.34;4991490;28;20872;-75
2022/04/20 00:54:30;;;;;;;12.20;11.50;;;;;;;0.94;86.46;92433.25;4990193;28;20235;-75
2022/04/20 00:56:56;;;;;;;9.90;9.40;;;;;;;1.02;85.98;92432.91;4990543;28;20231;-75
2022/04/20 00:59:25;;;;;;;10.83;10.20;;;;;;;0.86;86.15;92415.59;4990532;28;20235;-74
2022/04/20 01:01:51;;;;;;;10.60;10.10;;;;;;;0.92;85.45;92414.69;4974344;28;20200;-75
2022/04/20 01:04:17;;;;;;;10.70;10.13;;;;;;;0.86;85.28;92422.53;4990507;28;20836;-75
2022/04/20 01:06:42;;;;;;;10.87;9.97;;;;;;;0.93;84.51;92436.84;4989984;28;20207;-74
2022/04/20 01:09:09;;;;;;;10.57;9.97;;;;;;;1.02;83.84;92422.63;4990388;28;20227;-75
2022/04/20 01:11:34;;;;;;;10.13;9.40;;;;;;;1.09;84.20;92433.56;4990971;28;20193;-75
2022/04/20 01:14:00;;;;;;;10.50;9.87;;;;;;;0.91;84.57;92426.00;4990961;28;20291;-75
2022/04/20 01:16:25;;;;;;;10.77;10.13;;;;;;;1.05;84.27;92416.25;4990703;28;20511;-75
2022/04/20 01:18:53;;;;;;;12.30;11.43;;;;;;;0.83;84.94;92403.22;4989629;28;20235;-76
2022/04/20 01:21:19;;;;;;;10.57;9.87;;;;;;;1.02;85.64;92421.84;4990390;28;20207;-74
2022/04/20 01:23:44;;;;;;;11.10;10.50;;;;;;;0.81;86.13;92407.03;4990218;28;20258;-75
2022/04/20 01:26:11;;;;;;;10.97;10.17;;;;;;;0.57;86.03;92364.38;4989713;28;20200;-75
2022/04/20 01:28:37;;;;;;;10.60;10.00;;;;;;;0.94;85.77;92417.03;4990070;28;20227;-75
2022/04/20 01:31:04;;;;;;;10.37;9.80;;;;;;;0.93;86.14;92430.91;4990313;28;20192;-75
2022/04/20 01:33:29;;;;;;;10.67;9.97;;;;;;;0.89;85.35;92424.63;4989088;28;20263;-75
2022/04/20 01:35:55;;;;;;;12.43;11.60;;;;;;;0.90;85.01;92414.13;4991113;28;20192;-75
2022/04/20 01:38:20;;;;;;;12.10;11.30;;;;;;;0.88;85.14;92405.91;4990384;28;20239;-79
2022/04/20 01:40:46;;;;;;;11.03;10.30;;;;;;;1.05;85.64;92429.09;4990476;28;20303;-80
2022/04/20 01:43:11;;;;;;;12.20;11.10;;;;;;;0.91;86.26;92415.72;4990699;28;20266;-81
2022/04/20 01:45:37;;;;;;;10.10;9.47;;;;;;;1.09;85.78;92425.84;4990488;28;20243;-80
2022/04/20 01:48:03;;;;;;;11.40;10.63;;;;;;;0.96;86.16;92420.97;4989983;28;20219;-80
2022/04/20 01:50:28;;;;;;;10.57;9.73;;;;;;;1.09;87.05;92427.66;4990275;28;20191;-81
2022/04/20 01:52:54;;;;;;;10.33;9.83;;;;;;;1.11;86.22;92428.19;4989964;28;20188;-80
2022/04/20 01:55:20;;;;;;;10.40;9.80;;;;;;;1.08;85.82;92424.31;4990041;28;20200;-80
2022/04/20 01:57:45;;;;;;;12.23;11.57;;;;;;;0.99;86.31;92441.06;4989977;28;20192;-80
2022/04/20 02:00:12;;;;;;;11.23;10.57;;;;;;;0.76;86.53;92420.53;5005310;28;20232;-80
2022/04/20 02:02:40;;;;;;;11.20;10.67;;;;;;;0.77;87.49;92418.72;4990075;28;20184;-80
2022/04/20 02:05:10;;;;;;;11.30;10.60;;;;;;;0.88;87.54;92431.59;4989841;28;20227;-81
2022/04/20 02:07:36;;;;;;;12.50;11.47;;;;;;;0.96;87.67;92438.16;4990079;28;20188;-80
2022/04/20 02:10:04;;;;;;;11.53;10.93;;;;;;;1.09;87.15;92448.22;4989322;28;20235;-79
2022/04/20 02:12:29;;;;;;;11.03;10.37;;;;;;;0.83;87.86;92431.47;5005653;28;20204;-81
2022/04/20 02:14:55;;;;;;;11.80;11.10;;;;;;;0.82;88.18;92439.41;4988324;28;20238;-81
2022/04/20 02:17:21;;;;;;;10.57;9.97;;;;;;;0.92;88.25;92444.78;4988712;28;20192;-80
2022/04/20 02:19:46;;;;;;;11.67;10.90;;;;;;;0.78;88.62;92444.19;4989253;28;20321;-80
2022/04/20 02:22:12;;;;;;;11.20;10.40;;;;;;;0.68;89.60;92438.06;4989593;28;20231;-80
2022/04/20 02:24:37;;;;;;;13.13;11.93;;;;;;;0.50;89.78;92410.69;4988046;28;20242;-80
2022/04/20 02:27:03;;;;;;;15.90;13.03;;;;;;;0.75;89.71;92418.97;4990010;28;20180;-80
2022/04/20 02:29:28;;;;;;;12.60;11.70;;;;;;;0.79;89.06;92402.09;4989051;28;20295;-80
2022/04/20 02:31:54;;;;;;;12.87;11.77;;;;;;;0.66;89.02;92397.19;4988759;28;20200;-80
2022/04/20 02:34:19;;;;;;;15.00;13.47;;;;;;;0.89;88.28;92407.44;4988506;28;20228;-80
2022/04/20 02:36:45;;;;;;;12.90;11.87;;;;;;;0.55;89.40;92387.69;4990819;28;20199;-80
2022/04/20 02:39:11;;;;;;;13.53;12.33;;;;;;;0.53;90.18;92386.38;4989685;28;20246;-79
2022/04/20 02:41:37;;;;;;;13.53;12.63;;;;;;;0.62;91.44;92424.34;4989483;28;20195;-80
2022/04/20 02:44:04;;;;;;;13.80;12.80;;;;;;;0.88;91.47;92415.38;4990773;28;20780;-80
2022/04/20 02:46:30;;;;;;;13.57;12.40;;;;;;;0.87;90.86;92401.75;4992188;28;20239;-80
2022/04/20 02:48:55;;;;;;;11.77;10.93;;;;;;;1.07;90.31;92419.38;4992854;28;20240;-80
2022/04/20 02:51:21;;;;;;;12.57;11.67;;;;;;;0.90;89.91;92405.66;4993149;28;20180;-80
2022/04/20 02:53:46;;;;;;;13.00;12.13;;;;;;;0.92;91.60;92412.13;4992469;28;20224;-80
2022/04/20 02:56:12;;;;;;;13.03;12.10;;;;;;;0.89;92.08;92424.63;4993029;28;20188;-79
2022/04/20 02:58:37;;;;;;;14.87;13.67;;;;;;;0.77;92.61;92426.44;4992435;28;20262;-80
2022/04/20 03:01:03;;;;;;;14.30;13.20;;;;;;;0.75;94.74;92418.16;4992699;28;20871;-79
2022/04/20 03:03:28;;;;;;;11.90;11.17;;;;;;;0.88;94.05;92423.88;4992898;28;20316;-80
2022/04/20 03:05:54;;;;;;;14.13;13.00;;;;;;;0.88;93.75;92436.72;4993420;28;20224;-80
2022/04/20 03:08:20;;;;;;;14.23;12.67;;;;;;;1.02;93.54;92430.34;4992757;28;20224;-80
2022/04/20 03:10:46;;;;;;;13.00;11.70;;;;;;;1.00;93.30;92432.34;4993195;28;20211;-80
2022/04/20 03:13:12;;;;;;;13.30;12.30;;;;;;;1.21;92.15;92434.34;4992642;28;20238;-81
2022/04/20 03:15:37;;;;;;;12.70;11.70;;;;;;;1.14;91.72;92438.03;4993234;28;20196;-79
2022/04/20 03:18:03;;;;;;;12.27;11.33;;;;;;;0.92;91.63;92416.50;4992229;28;20203;-80
2022/04/20 03:20:28;;;;;;;15.23;14.03;;;;;;;0.89;91.86;92422.06;4993024;28;21037;-80
2022/04/20 03:22:54;;;;;;;13.40;12.20;;;;;;;1.07;92.26;92433.03;4990988;28;20252;-80
2022/04/20 03:25:19;;;;;;;13.83;12.53;;;;;;;0.98;91.64;92429.22;4992857;28;20215;-80
2022/04/20 03:27:45;;;;;;;15.10;13.57;;;;;;;1.23;91.31;92442.59;4992580;28;20192;-78
2022/04/20 03:30:12;;;;;;;14.10;12.90;;;;;;;1.27;91.12;92433.44;4992175;28;20235;-80
2022/04/20 03:32:39;;;;;;;14.83;13.53;;;;;;;1.21;91.28;92413.00;4992539;28;20252;-80
2022/04/20 03:35:04;;;;;;;16.73;14.80;;;;;;;1.26;90.55;92416.44;4992228;28;20216;-78
2022/04/20 03:37:31;;;;;;;13.60;12.50;;;;;;;1.42;90.64;92422.66;4992498;28;20247;-79
2022/04/20 03:39:57;;;;;;;14.03;12.73;;;;;;;1.30;91.03;92412.41;4991427;28;20303;-80
2022/04/20 03:42:22;;;;;;;12.77;11.67;;;;;;;1.40;90.38;92402.31;4992286;28;20195;-80
2022/04/20 03:44:48;;;;;;;14.13;12.97;;;;;;;1.63;90.57;92407.38;4992755;28;20220;-79
2022/04/20 03:47:13;;;;;;;14.00;12.80;;;;;;;1.71;89.42;92408.03;4992578;28;20192;-80
2022/04/20 03:49:39;;;;;;;13.33;12.03;;;;;;;1.66;90.18;92419.03;4991639;28;20295;-80
2022/04/20 03:52:06;;;;;;;13.70;12.60;;;;;;;1.67;90.67;92422.38;4991845;28;20204;-80
2022/04/20 03:54:32;;;;;;;15.77;14.30;;;;;;;1.56;90.45;92422.19;4992382;28;20301;-79
2022/04/20 03:57:03;;;;;;;14.87;13.57;;;;;;;1.77;90.20;92423.34;4990450;28;20216;-79
2022/04/20 03:59:29;;;;;;;15.23;13.97;;;;;;;1.87;89.37;92426.09;4991580;28;20228;-75
2022/04/20 04:01:55;;;;;;;14.23;13.07;;;;;;;1.80;88.96;92414.38;4991786;28;20188;-85
2022/04/20 04:04:21;;;;;;;17.37;15.57;;;;;;;2.08;88.50;92419.50;4991399;28;20255;-78
2022/04/20 04:06:47;;;;;;;16.27;14.53;;;;;;;2.06;88.06;92417.16;4991935;28;20200;-77
2022/04/20 04:09:12;;;;;;;16.97;14.83;;;;;;;1.96;88.55;92404.09;4991445;28;20231;-80
2022/04/20 04:11:38;;;;;;;16.73;13.43;;;;;;;2.11;88.51;92414.69;4992111;28;20248;-84
2022/04/20 04:14:04;;;;;;;15.43;14.07;;;;;;;1.83;88.21;92388.19;4990684;28;20255;-83
2022/04/20 04:16:29;;;;;;;14.73;13.47;;;;;;;1.67;91.19;92406.94;4992224;28;20280;-80
2022/04/20 04:18:55;;;;;;;14.10;12.83;;;;;;;2.00;89.71;92401.84;4991107;28;20270;-75
2022/04/20 04:21:21;;;;;;;14.23;13.00;;;;;;;1.86;89.66;92380.78;4991431;28;20199;-79
2022/04/20 04:23:47;;;;;;;13.90;12.80;;;;;;;2.23;88.56;92397.34;4991108;28;20244;-79
2022/04/20 04:26:13;;;;;;;18.63;13.27;;;;;;;2.11;88.82;92372.69;4988858;28;20192;-78
2022/04/20 04:28:40;;;;;;;15.87;14.57;;;;;;;2.44;87.93;92403.63;4990817;28;20240;-80
2022/04/20 04:31:06;;;;;;;13.83;12.70;;;;;;;2.19;88.12;92374.88;4991548;28;20200;-88
2022/04/20 04:33:31;;;;;;;14.90;13.77;;;;;;;2.20;87.70;92355.84;4988376;28;20913;-84
2022/04/20 04:35:57;;;;;;;15.03;13.63;;;;;;;2.52;86.79;92391.09;4989902;28;20280;-78
2022/04/20 04:38:22;;;;;;;14.23;13.10;;;;;;;2.17;88.21;92382.06;4990423;28;20275;-83
2022/04/20 04:40:47;;;;;;;15.30;13.90;;;;;;;1.60;91.59;92384.69;4991369;28;20224;-78
2022/04/20 04:43:13;;;;;;;14.90;13.60;;;;;;;1.95;91.49;92374.25;4990953;28;20236;-81
2022/04/20 04:48:42;;;;;;;15.83;14.53;;;;;;;2.16;89.47;92394.16;4990207;28;20235;-80
2022/04/20 04:51:09;;;;;;;15.23;14.03;;;;;;;2.24;88.37;92383.47;4989621;28;20191;-79
2022/04/20 04:53:35;;;;;;;14.83;13.43;;;;;;;2.21;88.32;92396.81;4990248;28;20340;-80
2022/04/20 04:56:00;;;;;;;13.63;12.37;;;;;;;2.11;89.32;92399.22;4990861;28;20211;-79
2022/04/20 04:58:26;;;;;;;15.17;14.00;;;;;;;2.38;88.82;92414.84;4990242;28;20232;-79
2022/04/20 05:00:51;;;;;;;15.23;13.90;;;;;;;2.31;87.85;92403.91;4990403;28;20188;-80
2022/04/20 05:03:17;;;;;;;14.30;12.97;;;;;;;1.80;91.04;92396.34;4989901;28;20228;-80
2022/04/20 05:05:43;;;;;;;16.03;14.70;;;;;;;1.70;91.77;92412.38;4989734;28;20191;-80
2022/04/20 05:08:09;;;;;;;17.03;15.23;;;;;;;2.06;90.16;92417.16;4988731;28;20411;-80
2022/04/20 05:10:34;;;;;;;14.60;13.37;;;;;;;1.61;89.79;92373.41;4989854;28;20373;-80
2022/04/20 05:13:00;;;;;;;16.27;14.70;;;;;;;2.25;90.14;92415.94;4989353;28;20228;-80
2022/04/20 05:15:26;;;;;;;16.77;15.23;;;;;;;2.38;89.09;92420.78;4990969;28;20263;-80
2022/04/20 05:17:52;;;;;;;16.93;15.20;;;;;;;2.60;88.92;92428.59;4990598;28;20218;-80
2022/04/20 05:20:19;;;;;;;16.63;15.13;;;;;;;2.60;88.41;92402.84;4989446;28;20196;-80
2022/04/20 05:22:48;;;;;;;17.43;14.67;;;;;;;2.80;87.44;92423.75;4990847;28;20242;-80
2022/04/20 05:25:13;;;;;;;16.03;14.27;;;;;;;2.93;86.75;92449.19;4990499;28;20231;-80
2022/04/20 05:27:39;;;;;;;20.37;16.40;;;;;;;2.74;87.24;92419.53;4991410;28;20259;-80
2022/04/20 05:30:06;;;;;;;15.73;14.20;;;;;;;2.87;86.91;92447.56;4989793;28;20236;-81
2022/04/20 05:32:31;;;;;;;16.27;14.73;;;;;;;2.70;87.45;92452.72;4990653;28;20199;-81
2022/04/20 05:34:57;;;;;;;17.20;15.57;;;;;;;2.12;90.45;92420.63;4990192;28;20296;-81
2022/04/20 05:42:52;;;;;;;16.30;14.93;;;;;;;2.62;88.21;92421.41;4990447;28;20194;-80
2022/04/20 05:45:17;;;;;;;16.47;14.97;;;;;;;2.81;88.10;92446.72;4989807;28;20192;-80
2022/04/20 05:47:43;;;;;;;14.03;12.93;;;;;;;2.98;86.14;92433.78;4990568;28;20192;-80
2022/04/20 05:50:09;;;;;;;16.67;15.07;;;;;;;2.92;87.38;92450.22;4989716;28;20262;-80
2022/04/20 05:52:34;;;;;;;16.37;14.90;;;;;;;2.57;90.31;92444.53;4989193;28;20184;-80
2022/04/20 05:55:00;;;;;;;16.70;14.97;;;;;;;2.73;88.64;92451.47;4989871;28;20308;-80
2022/04/20 05:57:25;;;;;;;16.63;15.23;;;;;;;2.70;88.45;92457.88;5005694;28;20196;-80
2022/04/20 05:59:51;;;;;;;16.03;14.60;;;;;;;2.81;88.15;92463.97;4989461;28;20259;-80
2022/04/20 06:02:16;;;;;;;17.27;15.53;;;;;;;2.77;87.95;92447.41;4990591;28;20204;-80
2022/04/20 06:04:42;;;;;;;16.50;15.20;;;;;;;2.76;87.17;92456.16;4988747;28;20234;-80
2022/04/20 06:07:07;;;;;;;16.47;15.03;;;;;;;2.80;86.83;92447.72;4989636;28;20188;-80
2022/04/20 06:09:33;;;;;;;16.47;15.07;;;;;;;2.78;87.11;92467.00;4989730;28;20231;-82
2022/04/20 06:11:58;;;;;;;18.03;15.13;;;;;;;2.79;86.91;92463.41;4990516;28;20192;-82
2022/04/20 06:14:24;;;;;;;18.27;16.27;;;;;;;2.40;88.88;92469.47;4990053;28;20220;-77
2022/04/20 06:16:50;;;;;;;17.20;15.50;;;;;;;2.66;88.09;92468.91;4989950;28;20232;-79
2022/04/20 06:19:15;;;;;;;17.10;15.33;;;;;;;2.62;88.63;92465.22;4989962;28;20239;-87
2022/04/20 06:21:41;;;;;;;17.93;15.57;;;;;;;2.57;89.13;92467.72;4993357;28;20299;-82
2022/04/20 06:24:07;;;;;;;19.60;16.10;;;;;;;2.49;88.87;92450.84;4992506;28;20238;-83
2022/04/20 06:26:32;;;;;;;16.23;14.87;;;;;;;2.84;88.64;92460.91;4993715;28;20188;-80
2022/04/20 06:28:58;;;;;;;18.20;16.50;;;;;;;3.09;86.91;92449.19;4992370;28;20224;-78
2022/04/20 06:31:44;;;;;;;17.67;15.43;;;;;;;2.70;88.62;92431.31;4993013;28;20200;-77
2022/04/20 06:34:09;;;;;;;17.70;16.10;;;;;;;3.06;87.29;92454.03;4991728;28;20231;-78
2022/04/20 06:36:35;;;;;;;19.43;16.60;;;;;;;3.08;87.35;92457.91;4992576;28;20196;-79
2022/04/20 06:39:01;;;;;;;17.80;16.00;;;;;;;3.17;88.30;92461.69;4992504;28;20308;-82
2022/04/20 06:41:26;;;;;;;23.33;18.33;;;;;;;2.96;88.18;92440.97;4993318;28;20184;-87
2022/04/20 06:43:52;;;;;;;18.43;16.20;;;;;;;3.11;88.79;92454.09;4993991;28;20254;-82
2022/04/20 06:46:17;;;;;;;18.83;16.33;;;;;;;3.46;87.53;92458.94;4993261;28;20184;-85
2022/04/20 06:48:43;;;;;;;19.00;17.03;;;;;;;3.70;86.69;92458.47;4992671;28;20251;-87
2022/04/20 06:51:08;;;;;;;17.80;15.00;;;;;;;3.70;86.39;92470.59;4993434;28;20200;-87
2022/04/20 06:58:31;;;;;;;17.53;15.73;;;;;;;4.02;86.24;92445.66;4993228;28;20260;-81
2022/04/20 06:59:12;;;;;;;16.27;14.73;;;;;;;4.22;85.76;92448.44;4992460;28;20247;-85
2022/04/20 07:01:37;;;;;;;18.13;16.50;;;;;;;4.04;85.96;92454.72;4993088;28;20192;-80
2022/04/20 07:04:03;;;;;;;17.13;15.37;;;;;;;4.16;85.56;92449.41;4992935;28;20287;-77
2022/04/20 07:06:28;;;;;;;18.57;16.73;;;;;;;3.81;86.08;92447.25;4992757;28;20195;-83
2022/04/20 07:08:54;;;;;;;15.07;13.50;;;;;;;4.17;85.66;92445.81;4992762;28;20243;-85
2022/04/20 07:11:20;;;;;;;15.80;14.30;;;;;;;4.25;84.60;92432.47;4992701;28;20211;-79
2022/04/20 07:13:48;;;;;;;15.33;14.03;;;;;;;4.51;84.35;92449.75;4992670;28;20219;-83
2022/04/20 07:16:14;;;;;;;15.27;13.80;;;;;;;3.92;84.87;92423.06;4992650;28;20195;-81
2022/04/20 07:18:39;;;;;;;13.90;12.60;;;;;;;3.85;87.02;92453.47;5007219;28;20232;-80
2022/04/20 07:21:05;;;;;;;14.73;13.17;;;;;;;4.00;86.14;92438.16;4991329;28;20196;-80
2022/04/20 07:23:31;;;;;;;13.43;12.50;;;;;;;3.96;84.91;92452.56;4990349;28;20246;-78
2022/04/20 07:25:56;;;;;;;15.80;14.50;;;;;;;4.04;84.95;92449.56;4992888;28;20200;-77
2022/04/20 07:28:22;;;;;;;16.60;15.07;;;;;;;4.07;85.71;92440.53;4991600;28;20232;-76
2022/04/20 07:30:47;;;;;;;17.50;15.63;;;;;;;4.17;86.93;92466.50;4991299;28;20187;-77
2022/04/20 07:33:16;;;;;;;19.67;14.67;;;;;;;4.01;88.38;92457.81;4991581;28;20240;-75
2022/04/20 07:35:45;;;;;;;18.00;16.20;;;;;;;3.82;89.52;92453.19;4992085;28;20188;-77
2022/04/20 07:38:11;;;;;;;16.13;14.47;;;;;;;4.07;88.25;92464.56;4991671;28;20235;-78
2022/04/20 07:40:37;;;;;;;15.20;14.00;;;;;;;4.06;87.96;92470.75;4991730;28;20206;-77
2022/04/20 07:43:03;;;;;;;13.67;12.47;;;;;;;3.63;88.72;92463.03;4990302;28;20203;-76
2022/04/20 07:45:28;;;;;;;14.43;13.23;;;;;;;3.92;88.50;92456.66;4992143;28;20220;-76
2022/04/20 07:47:55;;;;;;;16.67;15.07;;;;;;;4.08;87.31;92468.72;4990291;28;20255;-76
2022/04/20 07:50:25;;;;;;;15.10;13.70;;;;;;;4.37;85.57;92454.53;4990271;28;20188;-76
2022/04/20 07:52:56;;;;;;;14.73;13.33;;;;;;;4.40;84.58;92445.53;4989389;28;20210;-76
2022/04/20 07:55:29;;;;;;;15.07;13.70;;;;;;;4.43;84.66;92453.56;4989541;28;20906;-76
2022/04/20 07:58:00;;;;;;;15.07;13.87;;;;;;;4.53;85.15;92451.06;4989448;28;20200;-74
2022/04/20 08:00:26;;;;;;;17.17;15.50;;;;;;;4.61;85.54;92452.41;4987805;28;20228;-73
2022/04/20 08:03:08;;;;;;;17.57;15.80;;;;;;;4.55;84.39;92455.97;4990756;28;20215;-74
2022/04/20 08:05:33;;;;;;;19.73;17.40;;;;;;;4.19;86.12;92454.09;4989845;28;20242;-78
2022/04/20 08:07:59;;;;;;;24.03;19.70;;;;;;;4.12;87.33;92445.75;4991013;28;20196;-79
2022/04/20 08:10:24;;;;;;;30.53;23.23;;;;;;;4.03;86.86;92444.66;4992154;28;20215;-80
2022/04/20 08:12:50;;;;;;;22.00;16.90;;;;;;;4.18;86.65;92432.66;4991203;28;20199;-76
2022/04/20 08:15:15;;;;;;;23.17;19.87;;;;;;;4.06;87.71;92439.75;4992340;28;20200;-77
2022/04/20 08:17:41;;;;;;;28.13;23.73;;;;;;;4.13;86.96;92411.94;4991638;28;20251;-76
2022/04/20 08:20:08;;;;;;;21.50;19.37;;;;;;;4.37;86.95;92436.44;4990838;28;20244;-76
2022/04/20 08:22:44;;;;;;;22.00;19.67;;;;;;;4.46;86.38;92429.81;4989173;28;20224;-76
2022/04/20 08:25:12;;;;;;;21.00;18.87;;;;;;;4.67;86.36;92434.13;4990406;28;20828;-79
2022/04/20 08:27:38;;;;;;;24.03;20.57;;;;;;;4.77;85.22;92415.31;4991354;28;20198;-80
2022/04/20 08:30:06;;;;;;;25.90;19.53;;;;;;;4.51;84.93;92400.66;4989440;28;20256;-79
2022/04/20 08:32:33;;;;;;;21.93;19.60;;;;;;;4.47;85.29;92420.25;4991655;28;20188;-78
2022/04/20 08:34:58;;;;;;;22.10;18.00;;;;;;;4.49;85.63;92419.00;4989237;28;20262;-78
2022/04/20 08:37:25;;;;;;;23.97;19.90;;;;;;;4.45;85.08;92402.41;4991181;28;20239;-81
2022/04/20 08:39:50;;;;;;;21.87;17.40;;;;;;;4.63;85.10;92419.34;4989660;28;20228;-77
2022/04/20 08:42:19;;;;;;;25.00;18.60;;;;;;;4.74;83.53;92411.44;5006656;28;20201;-78
2022/04/20 08:44:48;;;;;;;25.63;20.90;;;;;;;4.70;84.83;92399.25;4991152;28;20232;-80
2022/04/20 08:47:18;;;;;;;28.73;23.10;;;;;;;4.68;84.67;92407.25;4991110;28;20184;-80
2022/04/20 08:49:45;;;;;;;21.97;19.67;;;;;;;4.63;84.88;92378.78;4989930;28;20223;-80
2022/04/20 08:54:56;;;;;;;20.60;17.97;;;;;;;4.83;84.06;92386.66;4990778;28;20258;-80
2022/04/20 08:57:24;;;;;;;20.47;18.27;;;;;;;4.68;84.48;92376.22;4990677;28;20200;-79
2022/04/20 08:59:51;;;;;;;20.97;17.37;;;;;;;4.92;83.49;92392.13;4990344;28;20303;-78
2022/04/20 09:02:18;;;;;;;18.53;16.67;;;;;;;4.58;84.70;92396.03;4987836;28;20196;-80
2022/04/20 09:04:44;;;;;;;19.43;16.57;;;;;;;4.67;85.23;92389.38;4990007;28;20243;-81
2022/04/20 09:07:11;;;;;;;18.60;16.50;;;;;;;4.63;85.89;92398.66;4990596;28;20203;-80
2022/04/20 09:09:38;;;;;;;18.50;16.33;;;;;;;4.77;84.57;92394.63;4989904;28;20224;-82
2022/04/20 09:12:14;;;;;;;17.10;15.47;;;;;;;4.40;85.10;92358.44;4990606;28;20199;-76
2022/04/20 09:14:41;;;;;;;19.33;17.30;;;;;;;4.67;85.24;92369.47;4988865;28;20228;-76
2022/04/20 09:17:09;;;;;;;22.27;18.27;;;;;;;4.85;85.21;92366.53;4988828;28;20191;-76
2022/04/20 09:19:36;;;;;;;19.57;17.67;;;;;;;5.01;82.93;92358.84;4988462;28;20235;-76
2022/04/20 09:22:16;;;;;;;18.83;16.97;;;;;;;5.05;83.71;92365.84;4989215;28;20251;-76
2022/04/20 09:24:57;;;;;;;19.37;17.47;;;;;;;4.94;84.52;92372.00;4989104;28;20230;-76
2022/04/20 09:27:23;;;;;;;17.63;15.83;;;;;;;4.85;83.08;92337.28;4988649;28;20194;-76
2022/04/20 09:29:55;;;;;;;18.37;16.47;;;;;;;4.97;82.89;92363.72;4973705;28;20255;-77
2022/04/20 09:32:33;;;;;;;17.90;16.10;;;;;;;4.49;84.37;92323.38;4969277;28;20208;-80
2022/04/20 09:34:59;;;;;;;17.77;16.20;;;;;;;4.59;86.88;92362.19;4988093;28;20247;-79
2022/04/20 09:37:25;;;;;;;15.90;14.40;;;;;;;4.60;84.65;92353.44;4990197;28;20787;-77
2022/04/20 09:39:51;;;;;;;17.30;15.27;;;;;;;4.34;85.99;92356.81;4989240;28;20231;-80
2022/04/20 09:42:19;;;;;;;15.40;14.27;;;;;;;4.49;85.26;92351.78;4988362;28;20187;-77
2022/04/20 09:44:54;;;;;;;14.60;13.30;;;;;;;4.46;85.27;92341.16;4989234;28;20223;-80
2022/04/20 09:50:24;;;;;;;13.73;12.47;;;;;;;4.24;87.35;92335.31;4989274;28;20336;-77
2022/04/20 09:52:55;;;;;;;14.77;13.47;;;;;;;4.19;89.04;92315.38;4989510;28;20187;-77
2022/04/20 09:55:29;;;;;;;16.30;14.80;;;;;;;4.49;87.60;92336.28;4989654;28;20284;-77
2022/04/20 09:58:10;;;;;;;16.23;14.80;;;;;;;4.40;85.98;92335.19;4988105;28;20180;-77
2022/04/20 10:00:40;;;;;;;17.33;15.83;;;;;;;4.28;88.70;92338.97;4989404;28;20251;-77
2022/04/20 10:03:06;;;;;;;14.60;13.13;;;;;;;4.54;87.01;92338.91;4989049;28;20256;-78
2022/04/20 10:05:32;;;;;;;13.60;12.47;;;;;;;4.67;86.30;92335.09;4989873;28;20220;-78
2022/04/20 10:07:59;;;;;;;13.50;12.43;;;;;;;4.64;85.88;92338.97;4989446;28;20303;-78
2022/04/20 10:10:28;;;;;;;14.77;13.60;;;;;;;4.54;88.32;92327.78;4988615;28;20215;-78
2022/04/20 10:12:56;;;;;;;13.27;12.27;;;;;;;4.25;89.06;92324.72;4989714;28;20196;-77
2022/04/20 10:18:21;;;;;;;14.00;12.83;;;;;;;5.45;86.18;92329.03;4989318;28;20267;-78
2022/04/20 10:20:54;;;;;;;14.17;13.03;;;;;;;5.24;85.04;92317.03;4988859;28;20186;-79
2022/04/20 10:23:21;;;;;;;15.07;13.77;;;;;;;5.33;85.75;92328.44;4988954;28;20236;-78
2022/04/20 10:25:50;;;;;;;15.33;14.10;;;;;;;5.05;85.47;92280.47;4989685;28;20183;-78
2022/04/20 10:28:19;;;;;;;16.03;14.67;;;;;;;5.50;85.60;92318.66;4989222;28;20232;-77
2022/04/20 10:31:18;;;;;;;14.07;12.70;;;;;;;5.00;88.00;92310.72;4988995;28;20188;-78
2022/04/20 10:33:45;;;;;;;15.63;14.23;;;;;;;5.53;87.02;92307.81;4989115;28;20236;-78
2022/04/20 10:36:15;;;;;;;14.63;13.33;;;;;;;5.82;85.92;92290.81;4989915;28;20193;-79
2022/04/20 10:38:43;;;;;;;14.93;13.43;;;;;;;6.06;85.16;92305.59;5001937;28;20228;-78
2022/04/20 10:41:11;;;;;;;15.83;14.37;;;;;;;5.30;84.06;92301.28;4989363;28;20192;-77
2022/04/20 10:43:42;;;;;;;14.70;13.47;;;;;;;5.73;83.39;92295.69;4988711;28;20231;-78
2022/04/20 10:46:11;;;;;;;17.03;15.37;;;;;;;5.60;86.72;92305.75;4989538;28;20298;-78
2022/04/20 10:48:58;;;;;;;16.27;14.80;;;;;;;6.04;84.31;92297.31;4988644;28;20240;-78
2022/04/20 10:51:30;;;;;;;15.43;14.33;;;;;;;6.34;83.89;92296.53;4989503;28;20222;-77
2022/04/20 10:54:24;;;;;;;13.60;12.60;;;;;;;6.57;81.64;92295.22;4989451;28;20258;-77
2022/04/20 10:56:59;;;;;;;13.50;12.57;;;;;;;6.68;81.17;92286.41;4988357;28;20196;-78
2022/04/20 10:59:24;;;;;;;10.90;10.13;;;;;;;6.45;80.43;92272.16;4988820;28;20894;-79
2022/04/20 11:02:11;;;;;;;11.47;10.57;;;;;;;6.56;82.78;92294.44;4989188;28;20193;-80
2022/04/20 11:04:39;;;;;;;10.30;9.67;;;;;;;6.43;81.29;92284.59;4989041;28;20239;-78
2022/04/20 11:07:07;;;;;;;11.70;10.90;;;;;;;6.25;81.52;92282.53;4993119;28;20188;-78
2022/04/20 11:09:52;;;;;;;11.40;10.80;;;;;;;6.11;81.30;92284.09;4991479;28;20231;-77
2022/04/20 11:18:38;;;;;;;10.07;9.47;;;;;;;5.76;85.80;92279.63;4991693;28;20259;-79
2022/04/20 11:21:03;;;;;;;10.77;10.17;;;;;;;5.87;84.11;92283.03;4992638;28;20176;-79
2022/04/20 11:24:01;;;;;;;11.07;10.47;;;;;;;5.68;83.70;92282.72;4991056;28;20231;-78
2022/04/20 11:26:28;;;;;;;10.77;10.17;;;;;;;5.59;83.05;92281.69;4992848;28;20187;-78
2022/04/20 11:29:01;;;;;;;11.10;10.47;;;;;;;5.25;84.56;92246.13;4992274;28;20242;-78
2022/04/20 11:31:33;;;;;;;10.43;9.93;;;;;;;5.53;84.57;92284.50;4992201;28;20194;-78
2022/04/20 11:34:00;;;;;;;11.40;10.77;;;;;;;5.33;85.30;92289.63;4992330;28;20257;-78
2022/04/20 11:36:25;;;;;;;12.27;11.57;;;;;;;5.02;86.74;92278.41;4992640;28;20188;-79
2022/04/20 11:38:51;;;;;;;10.97;10.27;;;;;;;5.15;87.29;92277.16;4992191;28;20232;-78
2022/04/20 11:41:18;;;;;;;11.47;10.67;;;;;;;5.50;84.04;92279.84;4992380;28;20188;-78
2022/04/20 11:43:45;;;;;;;11.43;10.67;;;;;;;5.16;87.02;92289.06;4990464;28;20223;-79
2022/04/20 11:46:11;;;;;;;11.77;10.97;;;;;;;5.19;85.77;92278.97;4990518;28;20239;-78
2022/04/20 11:48:37;;;;;;;13.43;12.50;;;;;;;4.83;88.28;92285.03;4990007;28;20239;-78
2022/04/20 11:51:08;;;;;;;11.77;10.97;;;;;;;4.56;91.15;92292.91;4990888;28;20256;-78
2022/04/20 11:53:42;;;;;;;12.10;11.00;;;;;;;4.26;91.46;92279.00;4990394;28;20224;-78